Latest Coastal Weather Observations for Portland Harbour

IDS60701

Issued at 3:31 pm CST Wednesday 4 May 2016 (issued every 10 minutes, with the page automatically refreshed every 10 minutes)

About coastal observations | Map of coastal stations | Coastal observations for SA | Marine services | Other Formats
Station Details ID: 090192 Name: PORTLAND NTC AWS Lat: -38.34 Lon: 141.61 Height: 0.0 m
Data from the previous 72 hours. | See also: Recent months for locations in South Australia
Date/Time
CST
Temp

°C
Wind Pressure Rain
since 9am
mm
Weather Cloud Vis
km
Sea
Height
m
Swell
Dir
 
Speed
knots
Gust
knots
hPa Trend Height
m
Period
s
Dir
04/03:30pm 16.0 NW 11 16 1011.3 - - - - - - - - -
04/03:00pm 15.9 NW 14 25 1011.5 - - - - - - - - -
04/02:58pm 15.9 NW 15 25 1011.5 - - - - - - - - -
04/02:30pm 15.6 NW 12 20 1011.5 - - - - - - - - -
04/02:00pm 15.7 NW 13 21 1011.5 - - - - - - - - -
04/01:30pm 15.6 NNW 13 21 1011.7 - - - - - - - - -
04/01:00pm 15.3 NW 15 22 1012.0 - - - - - - - - -
04/12:30pm 14.9 NW 14 25 1012.4 - - - - - - - - -
04/12:00pm 14.7 NW 14 21 1012.8 - - - - - - - - -
04/11:30am 14.4 NW 12 20 1013.2 - - - - - - - - -
04/11:00am 14.0 NW 12 19 1013.4 - - - - - - - - -
04/10:30am 13.4 NNW 12 17 1013.7 - - - - - - - - -
04/10:00am 12.3 NNW 11 14 1013.4 - - - - - - - - -
04/09:30am 11.8 WNW 9 14 1013.7 - - - - - - - - -
04/09:00am 11.8 NNW 11 15 1013.3 - - - - - - - - -
04/08:30am 10.7 NNW 10 13 1013.1 - - - - - - - - -
04/08:00am 9.9 NW 7 11 1013.2 - - - - - - - - -
04/07:30am 9.3 W 5 9 1012.8 - - - - - - - - -
04/07:00am 9.8 NW 10 13 1012.1 - - - - - - - - -
04/06:30am 9.4 NW 7 12 1011.8 - - - - - - - - -
04/06:00am 9.7 NW 6 9 1011.5 - - - - - - - - -
04/05:30am 9.9 NNW 10 13 1011.2 - - - - - - - - -
04/05:00am 9.9 NNW 11 14 1010.9 - - - - - - - - -
04/04:30am 10.2 NNW 10 13 1010.5 - - - - - - - - -
04/04:00am 10.1 NNW 10 13 1010.1 - - - - - - - - -
04/03:30am 10.7 NNW 8 10 1010.0 - - - - - - - - -
04/03:00am 11.5 NW 8 12 1009.6 - - - - - - - - -
04/02:30am 11.7 W 6 9 1009.6 - - - - - - - - -
04/02:00am 12.8 WSW 10 15 1009.3 - - - - - - - - -
04/01:30am 13.0 W 10 17 1009.1 - - - - - - - - -
04/01:00am 12.9 WSW 8 12 1008.7 - - - - - - - - -
04/12:30am 12.7 W 8 12 1008.4 - - - - - - - - -
04/12:00am 12.7 W 11 18 1008.4 - - - - - - - - -
 
Date/Time
CST
Temp

°C
Wind Pressure Rain
since 9am
mm
Weather Cloud Vis
km
Sea
Height
m
Swell
Dir
 
Speed
knots
Gust
knots
hPa Trend Height
m
Period
s
Dir
03/11:30pm 12.6 WSW 10 16 1008.1 - - - - - - - - -
03/11:00pm 12.7 W 9 19 1008.1 - - - - - - - - -
03/10:30pm 12.6 W 10 18 1007.9 - - - - - - - - -
03/10:00pm 12.2 W 13 18 1007.8 - - - - - - - - -
03/09:48pm 12.4 W 15 29 1007.6 - - - - - - - - -
03/09:30pm 12.7 W 12 20 1007.4 - - - - - - - - -
03/09:00pm 12.3 W 10 17 1007.0 - - - - - - - - -
03/08:30pm 12.1 W 11 21 1006.5 - - - - - - - - -
03/08:00pm 11.4 W 14 20 1006.2 - - - - - - - - -
03/07:43pm 11.8 WSW 17 34 1006.0 - - - - - - - - -
03/07:41pm 12.1 W 15 30 1005.8 - - - - - - - - -
03/07:30pm 11.6 W 10 18 1005.6 - - - - - - - - -
03/07:00pm 10.8 W 18 32 1005.4 - - - - - - - - -
03/06:56pm 11.0 W 15 32 1005.4 - - - - - - - - -
03/06:30pm 12.0 W 13 20 1004.5 - - - - - - - - -
03/06:13pm 12.3 W 15 27 1004.4 - - - - - - - - -
03/06:00pm 12.5 WSW 10 16 1003.9 - - - - - - - - -
03/05:30pm 13.0 W 15 22 1003.6 - - - - - - - - -
03/05:03pm 13.7 W 17 27 1002.8 - - - - - - - - -
03/05:00pm 13.9 W 18 27 1002.8 - - - - - - - - -
03/04:40pm 13.6 W 15 29 1002.4 - - - - - - - - -
03/04:30pm 13.5 W 14 21 1002.5 - - - - - - - - -
03/04:00pm 13.4 WSW 16 22 1001.9 - - - - - - - - -
03/03:30pm 13.9 WSW 21 32 1001.4 - - - - - - - - -
03/03:00pm 14.5 WSW 19 31 1000.8 - - - - - - - - -
03/02:30pm 14.3 WSW 23 34 1000.3 - - - - - - - - -
03/02:00pm 13.2 W 19 32 999.8 - - - - - - - - -
03/01:41pm 14.6 W 19 32 999.5 - - - - - - - - -
03/01:30pm 14.4 W 19 28 999.3 - - - - - - - - -
03/01:17pm 13.9 W 18 28 999.2 - - - - - - - - -
03/01:00pm 13.7 W 16 25 999.2 - - - - - - - - -
03/12:30pm 13.6 W 17 27 998.5 - - - - - - - - -
03/12:00pm 14.4 W 20 32 998.4 - - - - - - - - -
03/11:30am 13.4 W 20 32 997.9 - - - - - - - - -
03/11:09am 13.7 W 21 32 997.5 - - - - - - - - -
03/11:00am 14.9 W 17 28 997.4 - - - - - - - - -
03/10:46am 14.7 WNW 16 26 997.2 - - - - - - - - -
03/10:30am 13.9 WNW 17 25 997.4 - - - - - - - - -
03/10:13am 14.2 WNW 15 29 997.2 - - - - - - - - -
03/10:00am 15.3 WNW 14 23 996.4 - - - - - - - - -
03/09:30am 15.6 WNW 14 23 996.6 - - - - - - - - -
03/09:04am 15.0 WNW 15 26 997.0 - - - - - - - - -
03/09:00am 14.9 WNW 14 21 996.9 - - - - - - - - -
03/08:38am 14.9 WNW 16 26 996.9 - - - - - - - - -
03/08:30am 14.9 WNW 18 27 996.9 - - - - - - - - -
03/08:00am 15.1 WNW 18 23 996.8 - - - - - - - - -
03/07:30am 15.7 NW 16 27 996.1 - - - - - - - - -
03/07:13am 15.6 NW 17 29 996.0 - - - - - - - - -
03/07:00am 15.1 WNW 18 26 996.3 - - - - - - - - -
03/06:30am 14.5 NW 19 29 996.6 - - - - - - - - -
03/06:00am 15.3 NNW 19 30 995.8 - - - - - - - - -
03/05:30am 15.4 NNW 21 33 995.9 - - - - - - - - -
03/05:17am 15.1 NNW 19 30 996.0 - - - - - - - - -
03/05:00am 15.1 NNW 19 27 996.3 - - - - - - - - -
03/04:32am 15.0 NNW 20 30 996.5 - - - - - - - - -
03/04:30am 15.1 NNW 21 30 996.4 - - - - - - - - -
03/04:22am 15.2 NNW 18 29 996.5 - - - - - - - - -
03/04:00am 15.2 NNW 19 27 996.6 - - - - - - - - -
03/03:30am 15.5 NNW 20 29 996.7 - - - - - - - - -
03/03:15am 15.3 NNW 20 32 997.0 - - - - - - - - -
03/03:00am 15.1 NNW 19 27 997.4 - - - - - - - - -
03/02:32am 15.2 NNW 21 34 997.8 - - - - - - - - -
03/02:30am 15.2 NNW 20 28 997.8 - - - - - - - - -
03/02:00am 15.3 NNW 19 27 998.3 - - - - - - - - -
03/01:30am 15.4 NNW 20 31 998.8 - - - - - - - - -
03/01:22am 15.4 NNW 20 31 998.9 - - - - - - - - -
03/01:00am 15.8 NW 20 29 999.0 - - - - - - - - -
03/12:30am 16.8 NNW 25 35 999.2 - - - - - - - - -
03/12:00am 16.7 NNW 23 37 999.8 - - - - - - - - -
 
Date/Time
CST
Temp

°C
Wind Pressure Rain
since 9am
mm
Weather Cloud Vis
km
Sea
Height
m
Swell
Dir
 
Speed
knots
Gust
knots
hPa Trend Height
m
Period
s
Dir
02/11:30pm 16.6 NNW 21 34 999.7 - - - - - - - - -
02/11:00pm 16.4 NNW 23 35 1000.2 - - - - - - - - -
02/10:30pm 16.3 NW 20 32 1001.1 - - - - - - - - -
02/10:00pm 16.4 NNW 21 31 1001.3 - - - - - - - - -
02/09:30pm 16.4 NNW 19 31 1001.9 - - - - - - - - -
02/09:04pm 16.3 NNW 19 30 1002.2 - - - - - - - - -
02/09:00pm 16.4 NNW 20 30 1002.1 - - - - - - - - -
02/08:30pm 16.5 NNW 20 35 1002.3 - - - - - - - - -
02/08:19pm 16.4 NNW 20 32 1002.4 - - - - - - - - -
02/08:00pm 16.3 NW 19 28 1002.5 - - - - - - - - -
02/07:32pm 16.3 NNW 19 29 1003.1 - - - - - - - - -
02/07:30pm 16.3 NNW 19 28 1003.2 - - - - - - - - -
02/07:14pm 16.8 NW 17 28 1003.5 - - - - - - - - -
02/07:00pm 16.6 NW 16 23 1003.6 - - - - - - - - -
02/06:51pm 16.5 NW 18 28 1003.6 - - - - - - - - -
02/06:30pm 16.4 NNW 20 27 1003.4 - - - - - - - - -
02/06:00pm 16.1 NNW 18 25 1003.5 - - - - - - - - -
02/05:40pm 16.1 NW 17 27 1003.6 - - - - - - - - -
02/05:30pm 16.2 NW 19 27 1003.8 - - - - - - - - -
02/05:00pm 17.0 NW 22 35 1003.4 - - - - - - - - -
02/04:51pm 17.2 NNW 18 29 1003.4 - - - - - - - - -
02/04:30pm 17.4 NNW 16 25 1003.5 - - - - - - - - -
02/04:00pm 17.3 NNW 19 29 1003.6 - - - - - - - - -
02/03:54pm 17.3 NNW 15 26 1003.6 - - - - - - - - -
02/03:30pm 17.2 NNW 18 26 1003.8 - - - - - - - - -
02/03:00pm 16.9 NNW 17 24 1004.0 - - - - - - - - -
02/02:30pm 17.3 NNW 20 32 1004.2 - - - - - - - - -
02/02:12pm 17.1 NNW 21 31 1004.4 - - - - - - - - -
02/02:00pm 17.2 NNW 19 28 1004.4 - - - - - - - - -
02/01:30pm 17.1 NNW 19 30 1005.0 - - - - - - - - -
02/01:00pm 16.9 NNW 20 31 1005.5 - - - - - - - - -
02/12:30pm 16.6 NNW 22 32 1005.8 - - - - - - - - -
02/12:00pm 16.3 NW 20 31 1006.4 - - - - - - - - -
02/11:48am 16.0 NW 18 29 1006.6 - - - - - - - - -
02/11:30am 16.0 NW 24 31 1006.7 - - - - - - - - -
02/11:00am 16.1 NNW 21 37 1007.2 - - - - - - - - -
02/10:54am 15.9 NNW 23 37 1007.2 - - - - - - - - -
02/10:30am 15.5 NNW 17 27 1007.7 - - - - - - - - -
02/10:00am 14.9 NNW 19 29 1007.8 - - - - - - - - -
02/09:30am 14.4 NNW 17 25 1008.3 - - - - - - - - -
02/09:00am 13.9 NNW 16 23 1008.5 - - - - - - - - -
02/08:30am 13.5 NNW 15 20 1009.1 - - - - - - - - -
02/08:00am 12.5 NNW 14 20 1009.3 - - - - - - - - -
02/07:30am 11.8 NNW 13 17 1009.4 - - - - - - - - -
02/07:00am 11.4 NNW 11 16 1009.6 - - - - - - - - -
02/06:30am 11.4 NNW 14 17 1009.8 - - - - - - - - -
02/06:00am 11.2 NNW 13 19 1010.0 - - - - - - - - -
02/05:30am 11.4 NNW 13 17 1010.3 - - - - - - - - -
02/05:00am 10.8 NNW 9 13 1010.7 - - - - - - - - -
02/04:30am 10.8 NNW 11 15 1011.0 - - - - - - - - -
02/04:00am 11.1 NNW 12 17 1010.8 - - - - - - - - -
02/03:30am 11.3 NNW 10 15 1011.0 - - - - - - - - -
02/03:00am 11.4 NNW 11 16 1011.2 - - - - - - - - -
02/02:30am 11.2 NNW 12 16 1011.7 - - - - - - - - -
02/02:00am 11.0 NNW 11 15 1012.1 - - - - - - - - -
02/01:30am 10.8 NNW 10 14 1012.5 - - - - - - - - -
02/01:00am 10.5 NNW 10 13 1012.7 - - - - - - - - -
02/12:30am 10.6 NNW 10 13 1012.7 - - - - - - - - -
02/12:00am 10.7 NNW 11 15 1013.1 - - - - - - - - -
 
Date/Time
CST
Temp

°C
Wind Pressure Rain
since 9am
mm
Weather Cloud Vis
km
Sea
Height
m
Swell
Dir
 
Speed
knots
Gust
knots
hPa Trend Height
m
Period
s
Dir
01/11:30pm 10.6 NNW 10 13 1013.5 - - - - - - - - -
01/11:00pm 10.6 WNW 7 11 1014.0 - - - - - - - - -
01/10:30pm 11.0 NNW 12 16 1014.0 - - - - - - - - -
01/10:00pm 11.0 NNW 12 18 1014.1 - - - - - - - - -
01/09:30pm 10.7 NW 6 10 1014.2 - - - - - - - - -
01/09:00pm 10.8 NW 10 13 1014.2 - - - - - - - - -
01/08:30pm 11.2 NNW 9 12 1014.2 - - - - - - - - -
01/08:00pm 11.3 NNW 11 14 1014.1 - - - - - - - - -
01/07:30pm 11.6 NNW 9 11 1014.1 - - - - - - - - -
01/07:00pm 12.1 NW 5 7 1014.1 - - - - - - - - -
01/06:30pm 12.2 NW 6 9 1014.0 - - - - - - - - -
01/06:00pm 12.3 WNW 8 11 1013.9 - - - - - - - - -
01/05:30pm 13.4 WSW 8 13 1013.6 - - - - - - - - -
01/05:00pm 13.8 WSW 9 14 1013.4 - - - - - - - - -
01/04:30pm 14.2 WSW 12 17 1013.3 - - - - - - - - -
01/04:00pm 14.6 WSW 14 21 1013.1 - - - - - - - - -
01/03:31pm 14.9 WSW 16 26 1012.6 - - - - - - - - -
01/03:30pm 14.9 WSW 17 26 1012.5 - - - - - - - - -
01/03:14pm 14.9 WSW 15 25 1012.3 - - - - - - - - -

Other Formats:

Comma delimited format used in spreadsheet applications
http://www.bom.gov.au/fwo/IDS60701/IDS60701.95826.axf

JavaScript Object Notation format (JSON) in row-major order
http://www.bom.gov.au/fwo/IDS60701/IDS60701.95826.json